createdAt,value
2023-04-20T00:01:10.971Z,26.20
2023-04-20T00:03:39.071Z,25.20
2023-04-20T00:06:07.891Z,22.80
2023-04-20T00:08:35.785Z,24.10
2023-04-20T00:11:03.724Z,25.50
2023-04-20T00:13:31.636Z,25.60
2023-04-20T00:15:59.628Z,25.70
2023-04-20T00:18:27.539Z,24.20
2023-04-20T00:20:55.543Z,24.00
2023-04-20T00:23:23.339Z,24.30
2023-04-20T00:25:51.784Z,24.30
2023-04-20T00:28:19.584Z,27.00
2023-04-20T00:30:47.455Z,26.30
2023-04-20T00:33:15.466Z,25.00
2023-04-20T00:35:43.289Z,24.70
2023-04-20T00:38:11.139Z,25.50
2023-04-20T00:40:39.086Z,25.80
2023-04-20T00:43:13.984Z,25.80
2023-04-20T00:45:41.802Z,24.90
2023-04-20T00:48:09.646Z,24.10
2023-04-20T00:50:38.865Z,25.40
2023-04-20T00:53:08.137Z,26.30
2023-04-20T00:55:37.303Z,25.60
2023-04-20T00:58:06.315Z,24.40
2023-04-20T01:00:34.771Z,24.60
2023-04-20T01:03:02.722Z,25.30
2023-04-20T01:05:31.053Z,25.90
2023-04-20T01:07:59.078Z,25.10
2023-04-20T01:10:26.885Z,25.80
2023-04-20T01:12:54.749Z,24.70
2023-04-20T01:15:22.618Z,25.10
2023-04-20T01:17:50.513Z,26.90
2023-04-20T01:20:20.447Z,25.80
2023-04-20T01:22:51.019Z,25.70
2023-04-20T01:25:18.978Z,25.70
2023-04-20T01:27:46.964Z,25.30
2023-04-20T01:30:15.034Z,24.20
2023-04-20T01:32:43.769Z,24.60
2023-04-20T01:35:12.095Z,24.30
2023-04-20T01:37:40.936Z,25.80
2023-04-20T01:40:10.531Z,25.10
2023-04-20T01:42:38.425Z,23.60
2023-04-20T01:45:07.065Z,22.20
2023-04-20T01:47:35.552Z,24.30
2023-04-20T01:50:03.803Z,24.00
2023-04-20T01:52:31.676Z,25.10
2023-04-20T01:54:59.525Z,21.90
2023-04-20T01:57:27.290Z,22.60
2023-04-20T01:59:55.094Z,23.40
2023-04-20T02:02:23.777Z,23.30
2023-04-20T02:04:53.385Z,24.20
2023-04-20T02:07:21.379Z,23.40
2023-04-20T02:09:49.347Z,23.30
2023-04-20T02:12:17.127Z,22.80
2023-04-20T02:14:45.060Z,23.40
2023-04-20T02:17:13.975Z,23.50
2023-04-20T02:19:41.821Z,23.60
2023-04-20T02:22:09.761Z,23.10
2023-04-20T02:24:37.557Z,22.90
2023-04-20T02:27:05.668Z,22.60
2023-04-20T02:29:33.570Z,25.40
2023-04-20T02:32:01.616Z,24.90
2023-04-20T02:34:29.377Z,23.60
2023-04-20T02:36:57.170Z,23.00
2023-04-20T02:39:25.045Z,23.30
2023-04-20T02:41:52.828Z,24.00
2023-04-20T02:44:20.676Z,23.70
2023-04-20T02:46:48.553Z,24.20
2023-04-20T02:49:16.782Z,24.00
2023-04-20T02:51:44.832Z,23.80
2023-04-20T02:54:12.715Z,24.20
2023-04-20T02:56:40.600Z,24.90
2023-04-20T02:59:08.443Z,24.20
2023-04-20T03:01:36.263Z,25.60
2023-04-20T03:04:04.783Z,25.50
2023-04-20T03:06:33.413Z,23.70
2023-04-20T03:09:01.545Z,22.30
2023-04-20T03:11:29.361Z,24.80
2023-04-20T03:13:57.125Z,24.00
2023-04-20T03:16:24.918Z,25.00
2023-04-20T03:18:52.739Z,25.10
2023-04-20T03:21:20.735Z,24.90
2023-04-20T03:23:49.280Z,26.10
2023-04-20T03:26:17.895Z,24.70
2023-04-20T03:28:45.869Z,25.00
2023-04-20T03:31:13.810Z,27.60
2023-04-20T03:33:41.643Z,25.00
2023-04-20T03:36:09.845Z,26.00
2023-04-20T03:38:37.713Z,30.50
2023-04-20T03:41:08.136Z,33.00
2023-04-20T03:43:36.148Z,29.20
2023-04-20T03:46:04.057Z,27.70
2023-04-20T03:48:33.133Z,27.80
2023-04-20T03:51:01.133Z,28.10
2023-04-20T03:53:29.234Z,29.70
2023-04-20T03:55:57.160Z,34.00
2023-04-20T03:58:25.000Z,32.30
2023-04-20T04:00:52.825Z,29.70
2023-04-20T04:03:20.776Z,29.60
2023-04-20T04:05:48.650Z,29.90
2023-04-20T04:08:16.585Z,29.30
2023-04-20T04:10:44.448Z,31.20
2023-04-20T04:13:12.219Z,29.40
2023-04-20T04:15:40.012Z,29.50
2023-04-20T04:18:07.962Z,29.40
2023-04-20T04:20:35.835Z,28.60
2023-04-20T04:23:03.775Z,29.60
2023-04-20T04:25:31.586Z,28.20
2023-04-20T04:27:59.842Z,27.40
2023-04-20T04:30:27.719Z,27.90
2023-04-20T04:32:55.823Z,29.60
2023-04-20T04:35:23.992Z,29.60
2023-04-20T04:37:52.805Z,30.00
2023-04-20T04:40:20.856Z,28.40
2023-04-20T04:42:48.712Z,29.00
2023-04-20T04:45:18.473Z,27.90
2023-04-20T04:47:46.465Z,28.90
2023-04-20T04:50:14.530Z,30.30
2023-04-20T04:52:42.437Z,29.60
2023-04-20T04:55:10.366Z,28.30
2023-04-20T04:57:38.759Z,28.90
2023-04-20T05:00:11.847Z,29.70
2023-04-20T05:02:40.152Z,28.70
2023-04-20T05:05:10.081Z,30.90
2023-04-20T05:07:38.602Z,29.90
2023-04-20T05:10:08.109Z,29.60
2023-04-20T05:12:36.238Z,30.10
2023-04-20T05:15:04.518Z,28.60
2023-04-20T05:17:32.532Z,31.20
2023-04-20T05:20:00.396Z,31.00
2023-04-20T05:22:28.247Z,29.20
2023-04-20T05:24:56.042Z,29.30
2023-04-20T05:27:23.884Z,29.40
2023-04-20T05:29:51.677Z,29.60
2023-04-20T05:32:19.590Z,31.50
2023-04-20T05:34:47.426Z,31.10
2023-04-20T05:37:16.181Z,28.90
2023-04-20T05:39:43.972Z,30.50
2023-04-20T05:42:11.848Z,30.30
2023-04-20T05:44:41.145Z,30.10
2023-04-20T05:47:09.073Z,31.10
2023-04-20T05:49:36.943Z,28.40
2023-04-20T05:52:05.063Z,28.90
2023-04-20T05:54:32.942Z,28.60
2023-04-20T05:57:00.709Z,29.00
2023-04-20T05:59:28.729Z,30.40
2023-04-20T06:01:56.585Z,28.90
2023-04-20T06:04:24.637Z,27.70
2023-04-20T06:06:52.673Z,27.90
2023-04-20T06:09:20.854Z,29.30
2023-04-20T06:11:48.683Z,30.00
2023-04-20T06:14:16.731Z,29.50
2023-04-20T06:16:44.919Z,29.30
2023-04-20T06:19:12.831Z,28.70
2023-04-20T06:21:41.303Z,27.60
2023-04-20T06:24:09.267Z,29.70
2023-04-20T06:26:37.128Z,28.20
2023-04-20T06:29:05.022Z,29.50
2023-04-20T06:31:33.061Z,29.70
2023-04-20T06:34:00.859Z,30.20
2023-04-20T06:36:28.744Z,29.60
2023-04-20T06:38:56.646Z,30.40
2023-04-20T06:41:24.356Z,28.50
2023-04-20T06:43:52.102Z,29.00
2023-04-20T06:46:20.088Z,30.10
2023-04-20T06:48:47.942Z,28.50
2023-04-20T06:51:15.870Z,27.90
2023-04-20T06:53:43.735Z,28.70
2023-04-20T06:56:12.229Z,29.80
2023-04-20T06:58:40.097Z,28.20
2023-04-20T07:01:07.925Z,27.80
2023-04-20T07:03:36.477Z,25.60
2023-04-20T07:06:07.073Z,25.60
2023-04-20T07:08:34.882Z,26.80
2023-04-20T07:11:02.668Z,27.90
2023-04-20T07:13:33.923Z,27.40
2023-04-20T07:16:02.243Z,26.90
2023-04-20T07:18:30.278Z,26.70
2023-04-20T07:20:58.198Z,27.20
2023-04-20T07:23:26.115Z,25.70
2023-04-20T07:25:54.308Z,25.40
2023-04-20T07:28:22.109Z,24.20
2023-04-20T07:30:49.931Z,21.50
2023-04-20T07:33:18.045Z,22.30
2023-04-20T07:35:45.852Z,20.40
2023-04-20T07:38:13.817Z,19.60
2023-04-20T07:40:41.576Z,18.50
2023-04-20T07:43:09.361Z,17.30
2023-04-20T07:45:41.333Z,17.80
2023-04-20T07:48:10.070Z,17.60
2023-04-20T07:50:38.497Z,16.80
2023-04-20T07:53:06.346Z,15.00
2023-04-20T07:55:34.198Z,15.70
2023-04-20T07:58:02.001Z,15.30
2023-04-20T08:00:30.049Z,14.40
2023-04-20T08:02:58.162Z,13.20
2023-04-20T08:05:26.241Z,12.40
2023-04-20T08:07:57.084Z,12.10
2023-04-20T08:10:25.595Z,11.70
2023-04-20T08:12:54.006Z,12.20
2023-04-20T08:15:22.044Z,10.00
2023-04-20T08:17:50.006Z,9.80
2023-04-20T08:20:18.290Z,10.40
2023-04-20T08:22:46.120Z,9.40
2023-04-20T08:25:13.947Z,10.70
2023-04-20T08:27:41.798Z,10.10
2023-04-20T08:30:10.624Z,10.20
2023-04-20T08:32:38.494Z,9.10
2023-04-20T08:35:07.426Z,9.40
2023-04-20T08:37:37.457Z,10.40
2023-04-20T08:40:06.211Z,9.00
2023-04-20T08:42:34.075Z,10.20
2023-04-20T08:45:02.251Z,10.20
2023-04-20T08:47:31.525Z,9.90
2023-04-20T08:50:00.232Z,9.70
2023-04-20T08:52:28.306Z,11.70
2023-04-20T08:54:57.770Z,10.00
2023-04-20T08:57:26.440Z,9.70
2023-04-20T08:59:54.556Z,9.50
2023-04-20T09:02:22.850Z,10.10
2023-04-20T09:05:05.073Z,10.40
2023-04-20T09:07:33.100Z,9.50
2023-04-20T09:10:01.356Z,9.40
2023-04-20T09:12:29.496Z,10.10
2023-04-20T09:14:57.352Z,9.80
2023-04-20T09:17:36.341Z,9.70
2023-04-20T09:20:05.444Z,9.80
2023-04-20T09:22:35.956Z,9.90
2023-04-20T09:25:17.735Z,9.20
2023-04-20T09:28:00.098Z,9.90
2023-04-20T09:30:48.959Z,9.80
2023-04-20T09:33:17.056Z,10.10
2023-04-20T09:35:45.776Z,9.20
2023-04-20T09:38:17.116Z,8.90
2023-04-20T09:40:45.216Z,8.80
2023-04-20T09:43:19.963Z,8.40
2023-04-20T09:45:49.304Z,8.90
2023-04-20T09:48:19.656Z,8.20
2023-04-20T09:50:51.043Z,7.60
2023-04-20T09:53:20.204Z,7.60
2023-04-20T09:55:50.376Z,8.20
2023-04-20T09:58:20.442Z,6.90
2023-04-20T10:00:48.809Z,7.10
2023-04-20T10:03:18.967Z,8.40
2023-04-20T10:05:47.191Z,7.00
2023-04-20T10:08:15.156Z,7.00
2023-04-20T10:10:52.360Z,6.70
2023-04-20T10:13:22.061Z,6.60
2023-04-20T10:15:50.055Z,6.70
2023-04-20T10:18:23.480Z,6.70
2023-04-20T10:20:52.678Z,7.50
2023-04-20T10:23:20.598Z,7.60
2023-04-20T10:26:00.609Z,7.10
2023-04-20T10:28:42.942Z,7.60
2023-04-20T10:31:16.794Z,6.90
2023-04-20T10:33:56.061Z,7.20
2023-04-20T10:36:27.602Z,7.10
2023-04-20T10:38:55.972Z,6.60
2023-04-20T10:41:24.600Z,7.90
2023-04-20T10:43:52.402Z,7.00
2023-04-20T10:46:23.021Z,6.90
2023-04-20T10:49:01.541Z,7.00
2023-04-20T10:51:29.953Z,6.90
2023-04-20T10:54:05.061Z,6.10
2023-04-20T10:56:44.973Z,6.30
2023-04-20T10:59:19.285Z,6.60
2023-04-20T11:01:48.744Z,7.10
2023-04-20T11:04:18.816Z,6.80
2023-04-20T11:06:50.832Z,7.80
2023-04-20T11:09:28.452Z,8.00
2023-04-20T11:12:07.419Z,7.60
2023-04-20T11:14:38.963Z,7.30
2023-04-20T11:17:06.971Z,7.60
2023-04-20T11:19:37.197Z,7.00
2023-04-20T11:22:06.415Z,7.60
2023-04-20T11:24:35.818Z,7.60
2023-04-20T11:27:04.982Z,7.90
2023-04-20T11:29:35.505Z,7.30
2023-04-20T11:32:09.187Z,6.50
2023-04-20T11:34:38.944Z,6.60
2023-04-20T11:37:13.137Z,7.40
2023-04-20T11:39:41.789Z,6.90
2023-04-20T11:42:09.856Z,7.40
2023-04-20T11:44:40.036Z,7.40
2023-04-20T11:47:07.965Z,6.30
2023-04-20T11:49:35.703Z,7.10
2023-04-20T11:52:03.660Z,7.00
2023-04-20T11:54:34.047Z,6.20
2023-04-20T11:57:02.598Z,6.10
2023-04-20T11:59:30.909Z,6.10
2023-04-20T12:02:01.311Z,6.30
2023-04-20T12:04:30.424Z,5.30
2023-04-20T12:07:02.810Z,5.30
2023-04-20T12:09:30.766Z,5.70
2023-04-20T12:11:59.151Z,5.80
2023-04-20T12:14:27.238Z,6.70
2023-04-20T12:16:56.741Z,6.60
2023-04-20T12:19:25.971Z,6.80
2023-04-20T12:21:53.887Z,6.80
2023-04-20T12:24:22.399Z,6.20
2023-04-20T12:26:50.318Z,7.00
2023-04-20T12:29:18.560Z,6.30
2023-04-20T12:31:46.780Z,6.50
2023-04-20T12:34:14.660Z,7.90
2023-04-20T12:36:42.366Z,7.40
2023-04-20T12:39:11.858Z,7.20
2023-04-20T12:41:41.441Z,6.70
2023-04-20T12:44:11.444Z,6.50
2023-04-20T12:46:39.647Z,5.60
2023-04-20T12:49:07.612Z,6.10
2023-04-20T12:51:35.402Z,6.20
2023-04-20T12:54:03.517Z,6.20
2023-04-20T12:56:31.326Z,5.30
2023-04-20T12:58:59.345Z,5.10
2023-04-20T13:01:27.261Z,5.30
2023-04-20T13:03:56.264Z,5.50
2023-04-20T13:06:24.300Z,5.20
2023-04-20T13:08:52.206Z,4.50
2023-04-20T13:11:20.159Z,3.90
2023-04-20T13:13:47.881Z,5.20
2023-04-20T13:16:15.936Z,4.70
2023-04-20T13:18:43.972Z,5.90
2023-04-20T13:21:11.887Z,5.50
2023-04-20T13:23:40.172Z,5.60
2023-04-20T13:26:08.766Z,5.40
2023-04-20T13:28:37.793Z,4.90
2023-04-20T13:31:05.998Z,4.80
2023-04-20T13:33:34.394Z,4.50
2023-04-20T13:36:02.669Z,5.00
2023-04-20T13:38:30.650Z,4.70
2023-04-20T13:40:58.500Z,4.50
2023-04-20T13:43:26.482Z,4.90
2023-04-20T13:45:54.497Z,4.50
2023-04-20T13:48:22.551Z,4.70
2023-04-20T13:50:51.240Z,4.70
2023-04-20T13:53:19.093Z,4.70
2023-04-20T13:55:46.849Z,4.50
2023-04-20T13:58:14.776Z,5.80
2023-04-20T14:00:42.627Z,4.50
2023-04-20T14:03:10.800Z,4.50
2023-04-20T14:05:39.067Z,4.30
2023-04-20T14:08:07.434Z,5.40
2023-04-20T14:10:35.579Z,4.80
2023-04-20T14:13:03.963Z,4.60
2023-04-20T14:15:32.214Z,4.70
2023-04-20T14:18:00.597Z,5.50
2023-04-20T14:20:28.440Z,6.10
2023-04-20T14:22:56.393Z,5.20
2023-04-20T14:25:24.262Z,5.00
2023-04-20T14:27:52.231Z,5.50
2023-04-20T14:30:20.134Z,5.10
2023-04-20T14:32:59.016Z,5.30
2023-04-20T14:35:28.002Z,4.80
2023-04-20T14:37:55.962Z,5.90
2023-04-20T14:40:23.783Z,5.50
2023-04-20T14:42:51.700Z,5.30
2023-04-20T14:45:19.748Z,4.80
2023-04-20T14:47:47.576Z,5.00
2023-04-20T14:50:15.516Z,5.10
2023-04-20T14:52:43.244Z,4.90
2023-04-20T14:55:11.116Z,4.70
2023-04-20T14:57:38.914Z,4.80
2023-04-20T15:00:07.787Z,4.80
2023-04-20T15:02:35.839Z,4.90
2023-04-20T15:05:07.036Z,5.60
2023-04-20T15:07:39.952Z,5.20
2023-04-20T15:10:09.296Z,9.50
2023-04-20T15:12:37.093Z,6.00
2023-04-20T15:15:05.481Z,8.70
2023-04-20T15:17:33.278Z,5.60
2023-04-20T15:20:01.117Z,4.00
2023-04-20T15:22:28.971Z,5.70
2023-04-20T15:24:56.925Z,6.30
2023-04-20T15:27:24.770Z,5.30
2023-04-20T15:29:52.670Z,4.30
2023-04-20T15:32:20.549Z,4.30
2023-04-20T15:34:48.326Z,5.50
2023-04-20T15:37:16.162Z,4.50
2023-04-20T15:39:44.962Z,4.60
2023-04-20T15:42:13.003Z,4.40
2023-04-20T15:44:41.571Z,5.80
2023-04-20T15:47:09.467Z,5.00
2023-04-20T15:49:40.678Z,4.80
2023-04-20T15:52:08.698Z,5.30
2023-04-20T15:54:37.694Z,5.30
2023-04-20T15:57:05.527Z,5.30
2023-04-20T15:59:33.474Z,5.50
2023-04-20T16:02:01.425Z,5.20
2023-04-20T16:04:29.339Z,5.60
2023-04-20T16:06:57.203Z,4.50
2023-04-20T16:09:25.226Z,4.20
2023-04-20T16:11:53.266Z,5.60
2023-04-20T16:14:21.384Z,5.70
2023-04-20T16:16:49.328Z,4.40
2023-04-20T16:19:17.148Z,4.00
2023-04-20T16:21:44.950Z,4.80
2023-04-20T16:24:12.859Z,3.50
2023-04-20T16:26:41.415Z,4.50
2023-04-20T16:29:09.957Z,4.20
2023-04-20T16:31:38.089Z,4.70
2023-04-20T16:34:06.535Z,5.10
2023-04-20T16:36:35.299Z,4.40
2023-04-20T16:39:05.953Z,4.30
2023-04-20T16:41:33.943Z,4.50
2023-04-20T16:44:01.859Z,4.00
2023-04-20T16:46:29.877Z,4.50
2023-04-20T16:48:58.091Z,4.80
2023-04-20T16:51:26.131Z,3.90
2023-04-20T16:53:55.335Z,4.70
2023-04-20T16:56:23.311Z,4.30
2023-04-20T16:58:51.144Z,5.50
2023-04-20T17:01:19.207Z,4.80
2023-04-20T17:03:47.898Z,5.00
2023-04-20T17:06:15.891Z,5.20
2023-04-20T17:08:43.734Z,12.70
2023-04-20T17:11:11.642Z,21.90
2023-04-20T17:13:39.571Z,41.80
2023-04-20T17:16:07.436Z,31.00
2023-04-20T17:18:35.437Z,26.00
2023-04-20T17:21:04.034Z,19.20
2023-04-20T17:23:34.288Z,20.70
2023-04-20T17:26:03.071Z,17.40
2023-04-20T17:28:30.948Z,19.80
2023-04-20T17:31:02.251Z,18.50
2023-04-20T17:33:30.661Z,16.30
2023-04-20T17:36:00.124Z,16.90
2023-04-20T17:38:31.069Z,17.30
2023-04-20T17:40:59.224Z,18.90
2023-04-20T17:43:27.351Z,20.70
2023-04-20T17:45:55.361Z,20.70
2023-04-20T17:48:23.165Z,22.30
2023-04-20T17:50:54.528Z,25.10
2023-04-20T17:53:23.361Z,33.10
2023-04-20T17:55:54.349Z,43.10
2023-04-20T17:58:22.265Z,50.80
2023-04-20T18:00:51.941Z,56.60
2023-04-20T18:03:21.420Z,60.90
2023-04-20T18:05:49.338Z,57.00
2023-04-20T18:08:17.801Z,51.70
2023-04-20T18:10:45.974Z,50.50
2023-04-20T18:13:13.905Z,38.00
2023-04-20T18:15:41.943Z,32.80
2023-04-20T18:18:10.483Z,30.10
2023-04-20T18:20:40.627Z,31.60
2023-04-20T18:23:08.577Z,35.60
2023-04-20T18:25:36.710Z,36.10
2023-04-20T18:28:04.635Z,36.30
2023-04-20T18:30:35.192Z,38.80
2023-04-20T18:33:03.138Z,41.10
2023-04-20T18:35:31.125Z,41.70
2023-04-20T18:38:02.638Z,43.50
2023-04-20T18:40:30.583Z,44.00
2023-04-20T18:42:58.387Z,43.50
2023-04-20T18:45:26.381Z,41.50
2023-04-20T18:47:54.264Z,46.90
2023-04-20T18:50:22.278Z,55.70
2023-04-20T18:52:50.299Z,60.50
2023-04-20T18:55:18.185Z,67.10
2023-04-20T18:57:45.976Z,73.60
2023-04-20T19:00:14.434Z,76.20
2023-04-20T19:02:45.969Z,74.60
2023-04-20T19:05:14.717Z,77.40
2023-04-20T19:07:42.587Z,73.80
2023-04-20T19:10:10.806Z,83.00
2023-04-20T19:12:38.701Z,78.20
2023-04-20T19:15:08.659Z,70.20
2023-04-20T19:17:36.680Z,66.50
2023-04-20T19:20:05.498Z,51.70
2023-04-20T19:22:33.435Z,40.50
2023-04-20T19:25:01.325Z,37.20
2023-04-20T19:27:30.496Z,30.90
2023-04-20T19:29:58.357Z,33.20
2023-04-20T19:32:26.567Z,56.10
2023-04-20T19:34:57.368Z,73.40
2023-04-20T19:37:25.681Z,106.70
2023-04-20T19:39:53.863Z,162.80
2023-04-20T19:42:22.859Z,94.20
2023-04-20T19:44:53.511Z,55.90
2023-04-20T19:47:23.846Z,44.00
2023-04-20T19:49:52.443Z,40.60
2023-04-20T19:52:20.573Z,42.00
2023-04-20T19:54:52.214Z,43.30
2023-04-20T19:57:20.238Z,45.10
2023-04-20T19:59:48.259Z,49.60
2023-04-20T20:02:18.437Z,50.90
2023-04-20T20:04:46.290Z,52.80
2023-04-20T20:07:14.159Z,51.40
2023-04-20T20:09:44.085Z,48.40
2023-04-20T20:12:12.514Z,53.10
2023-04-20T20:14:40.665Z,56.20
2023-04-20T20:17:08.470Z,61.70
2023-04-20T20:19:36.409Z,61.90
2023-04-20T20:22:04.166Z,59.10
2023-04-20T20:24:31.927Z,59.00
2023-04-20T20:26:59.685Z,55.00
2023-04-20T20:29:27.470Z,51.60
2023-04-20T20:31:55.356Z,49.20
2023-04-20T20:34:23.098Z,46.20
2023-04-20T20:36:51.350Z,43.60
2023-04-20T20:39:19.754Z,38.50
2023-04-20T20:41:51.182Z,36.50
2023-04-20T20:44:20.591Z,35.40
2023-04-20T20:46:48.851Z,32.20
2023-04-20T20:49:17.144Z,29.90
2023-04-20T20:51:45.003Z,27.50
2023-04-20T20:54:12.873Z,31.30
2023-04-20T20:56:40.786Z,27.40
2023-04-20T20:59:11.363Z,28.60
2023-04-20T21:01:42.282Z,26.40
2023-04-20T21:04:10.471Z,25.20
2023-04-20T21:06:38.444Z,22.90
2023-04-20T21:09:06.333Z,22.90
2023-04-20T21:11:34.150Z,22.20
2023-04-20T21:14:03.510Z,23.20
2023-04-20T21:16:31.387Z,24.90
2023-04-20T21:18:59.286Z,23.70
2023-04-20T21:21:27.552Z,25.60
2023-04-20T21:23:55.666Z,21.90
2023-04-20T21:26:23.585Z,20.90
2023-04-20T21:28:51.505Z,19.40
2023-04-20T21:31:19.594Z,19.60
2023-04-20T21:33:47.515Z,19.50
2023-04-20T21:36:15.440Z,19.40
2023-04-20T21:38:45.568Z,18.50
2023-04-20T21:41:13.364Z,19.30
2023-04-20T21:43:43.342Z,16.20
2023-04-20T21:46:15.869Z,15.30
2023-04-20T21:48:43.807Z,14.50
2023-04-20T21:51:18.269Z,15.60
2023-04-20T21:53:46.100Z,15.10
2023-04-20T21:56:14.971Z,15.00
2023-04-20T21:58:42.945Z,14.70
2023-04-20T22:01:11.179Z,15.40
2023-04-20T22:03:39.296Z,14.80
2023-04-20T22:06:07.499Z,13.30
2023-04-20T22:08:39.618Z,13.40
2023-04-20T22:11:07.975Z,13.10
2023-04-20T22:13:36.650Z,14.20
2023-04-20T22:16:05.032Z,12.80
2023-04-20T22:18:32.810Z,12.60
2023-04-20T22:21:00.636Z,13.20
2023-04-20T22:23:28.543Z,13.30
2023-04-20T22:25:56.426Z,15.40
2023-04-20T22:28:24.357Z,13.80
2023-04-20T22:30:52.334Z,13.70
2023-04-20T22:33:20.488Z,12.60
2023-04-20T22:35:48.377Z,13.20
2023-04-20T22:38:16.483Z,12.70
2023-04-20T22:40:44.347Z,14.60
2023-04-20T22:43:12.287Z,13.70
2023-04-20T22:45:40.689Z,14.90
2023-04-20T22:48:09.278Z,12.90
2023-04-20T22:50:37.273Z,13.00
2023-04-20T22:53:05.182Z,13.20
2023-04-20T22:55:33.028Z,13.50
2023-04-20T22:58:00.863Z,13.00
2023-04-20T23:00:28.748Z,14.80
2023-04-20T23:02:56.776Z,14.60
2023-04-20T23:05:25.115Z,14.40
2023-04-20T23:07:56.310Z,14.50
2023-04-20T23:10:28.635Z,15.60
2023-04-20T23:12:56.704Z,14.70
2023-04-20T23:15:24.641Z,14.50
2023-04-20T23:17:52.880Z,15.40
2023-04-20T23:20:20.885Z,15.20
2023-04-20T23:22:48.668Z,16.20
2023-04-20T23:25:16.560Z,15.50
2023-04-20T23:27:44.367Z,14.50
2023-04-20T23:30:12.887Z,14.30
2023-04-20T23:32:42.348Z,14.80
2023-04-20T23:35:11.629Z,15.40
2023-04-20T23:37:39.400Z,15.30
2023-04-20T23:40:10.075Z,15.90
2023-04-20T23:42:37.902Z,15.90
2023-04-20T23:45:06.682Z,15.20
2023-04-20T23:47:34.570Z,14.60
2023-04-20T23:50:02.354Z,14.90
2023-04-20T23:52:30.852Z,15.50
2023-04-20T23:54:58.725Z,16.20
2023-04-20T23:57:26.601Z,16.20
2023-04-20T23:59:54.736Z,17.00
